首页
METAR-TAF:

METAR-TAF

机场 :

香港國際機場

香港, 中华人民共和国

纬度: 22-19N, 经度: 113-55E, 海拔: 9米

当前天气观测

该预报发布于12分钟前的09:00 UTC
风速3节,风向西,在南转西南西转西北之间变化
温度 21°C
湿度 64%
气压 1017 hPa
能見度: 7000
少量云层高于4000英尺

METAR: VHHH 190900Z 26003KT 210V300 7000 FEW040 21/14 Q1017 NOSIG

时间: 17:12 (09:12 UTC)

预报

该预报发布于4小时和12分钟前的05:00 UTC
预报有效从19日的 06点(UTC)到 20日的 12点(UTC)
风速5节,风向多变
能見度: 7000
少量云层高于2500英尺
散云层高于4500英尺
短暂存在
从 19日的 06点(UTC)到 19日的 09点(UTC)
风速10节,风向西北
短暂存在
从 19日的 14点(UTC)到 19日的 24点(UTC)
风速10节,风向东北
短暂存在
从 20日的 03点(UTC)到 20日的 09点(UTC)
风速10节,风向西转西北
成为
从 20日的 09点(UTC)到 20日的 11点(UTC)
风速10节,风向北转东北

TAF: VHHH 190500Z 1906/2012 VRB05KT 7000 FEW025 SCT045 TX22/1906Z TX22/2006Z TN18/1923Z TEMPO 1906/1909 32010KT TEMPO 1914/1924 04010KT TEMPO 2003/2009 30010KT BECMG 2009/2011 03010KT

超过4000个机场的气象观测和天气预报(METAR&TAF报告)。

可查询的气象台以黄色和红色小点在地图上表示。

将鼠标移到小点上方,可查看气象台名称。

然后点击查看天气观测和预报。

如需切换地图:点击带黑十字的绿色按钮放大地图;点击带横线的绿色按钮缩小地图;或者点击绿色箭头查看邻近地区的地图。


METAR-TAF: